sensor_id;sensor_type;location;lat;lon;timestamp;P1;durP1;ratioP1;P2;durP2;ratioP2
71290;SDS011;59073;51.994;4.448;2022-12-29T00:02:17;1.36;;;1.36;;
71290;SDS011;59073;51.994;4.448;2022-12-29T00:04:43;1.25;;;1.25;;
71290;SDS011;59073;51.994;4.448;2022-12-29T00:07:10;1.26;;;1.26;;
71290;SDS011;59073;51.994;4.448;2022-12-29T00:09:36;1.19;;;1.19;;
71290;SDS011;59073;51.994;4.448;2022-12-29T00:12:02;1.29;;;1.29;;
71290;SDS011;59073;51.994;4.448;2022-12-29T00:14:29;1.27;;;1.27;;
71290;SDS011;59073;51.994;4.448;2022-12-29T00:17:13;1.40;;;1.40;;
71290;SDS011;59073;51.994;4.448;2022-12-29T00:19:38;1.48;;;1.48;;
71290;SDS011;59073;51.994;4.448;2022-12-29T00:22:22;1.49;;;1.49;;
71290;SDS011;59073;51.994;4.448;2022-12-29T00:25:10;1.42;;;1.42;;
71290;SDS011;59073;51.994;4.448;2022-12-29T00:27:55;1.15;;;1.15;;
71290;SDS011;59073;51.994;4.448;2022-12-29T00:30:40;1.36;;;1.36;;
71290;SDS011;59073;51.994;4.448;2022-12-29T00:33:30;1.29;;;1.29;;
71290;SDS011;59073;51.994;4.448;2022-12-29T00:36:16;0.93;;;0.93;;
71290;SDS011;59073;51.994;4.448;2022-12-29T00:38:50;1.13;;;1.13;;
71290;SDS011;59073;51.994;4.448;2022-12-29T00:41:38;0.78;;;0.78;;
71290;SDS011;59073;51.994;4.448;2022-12-29T00:44:22;0.86;;;0.86;;
71290;SDS011;59073;51.994;4.448;2022-12-29T00:46:47;1.03;;;1.03;;
71290;SDS011;59073;51.994;4.448;2022-12-29T00:49:13;1.01;;;1.01;;
71290;SDS011;59073;51.994;4.448;2022-12-29T00:52:00;0.87;;;0.87;;
71290;SDS011;59073;51.994;4.448;2022-12-29T00:54:32;0.96;;;0.96;;
71290;SDS011;59073;51.994;4.448;2022-12-29T00:56:59;0.83;;;0.83;;
71290;SDS011;59073;51.994;4.448;2022-12-29T00:59:24;0.99;;;0.99;;
71290;SDS011;59073;51.994;4.448;2022-12-29T01:01:50;1.07;;;1.07;;
71290;SDS011;59073;51.994;4.448;2022-12-29T01:04:17;0.88;;;0.88;;
71290;SDS011;59073;51.994;4.448;2022-12-29T01:06:43;0.80;;;0.80;;
71290;SDS011;59073;51.994;4.448;2022-12-29T01:09:09;0.78;;;0.78;;
71290;SDS011;59073;51.994;4.448;2022-12-29T01:11:54;0.81;;;0.81;;
71290;SDS011;59073;51.994;4.448;2022-12-29T01:14:20;0.86;;;0.86;;
71290;SDS011;59073;51.994;4.448;2022-12-29T01:16:47;0.62;;;0.61;;
71290;SDS011;59073;51.994;4.448;2022-12-29T01:19:13;0.84;;;0.83;;
71290;SDS011;59073;51.994;4.448;2022-12-29T01:21:40;0.92;;;0.91;;
71290;SDS011;59073;51.994;4.448;2022-12-29T01:24:05;1.09;;;1.08;;
71290;SDS011;59073;51.994;4.448;2022-12-29T01:26:31;0.83;;;0.82;;
71290;SDS011;59073;51.994;4.448;2022-12-29T01:28:56;0.89;;;0.88;;
71290;SDS011;59073;51.994;4.448;2022-12-29T01:31:22;0.82;;;0.81;;
71290;SDS011;59073;51.994;4.448;2022-12-29T01:33:47;0.92;;;0.90;;
71290;SDS011;59073;51.994;4.448;2022-12-29T01:36:13;0.81;;;0.79;;
71290;SDS011;59073;51.994;4.448;2022-12-29T01:38:40;0.87;;;0.85;;
71290;SDS011;59073;51.994;4.448;2022-12-29T01:41:08;0.82;;;0.81;;
71290;SDS011;59073;51.994;4.448;2022-12-29T01:46:03;0.73;;;0.72;;
71290;SDS011;59073;51.994;4.448;2022-12-29T01:48:29;0.92;;;0.91;;
71290;SDS011;59073;51.994;4.448;2022-12-29T01:50:54;0.95;;;0.94;;
71290;SDS011;59073;51.994;4.448;2022-12-29T01:53:27;0.97;;;0.96;;
71290;SDS011;59073;51.994;4.448;2022-12-29T01:55:59;0.78;;;0.77;;
71290;SDS011;59073;51.994;4.448;2022-12-29T01:58:30;1.13;;;1.09;;
71290;SDS011;59073;51.994;4.448;2022-12-29T02:01:01;1.11;;;1.03;;
71290;SDS011;59073;51.994;4.448;2022-12-29T02:03:27;0.93;;;0.85;;
71290;SDS011;59073;51.994;4.448;2022-12-29T02:06:17;1.19;;;1.07;;
71290;SDS011;59073;51.994;4.448;2022-12-29T02:08:47;1.26;;;1.10;;
71290;SDS011;59073;51.994;4.448;2022-12-29T02:11:17;1.30;;;1.09;;
71290;SDS011;59073;51.994;4.448;2022-12-29T02:13:44;1.36;;;1.10;;
71290;SDS011;59073;51.994;4.448;2022-12-29T02:16:21;1.20;;;0.96;;
71290;SDS011;59073;51.994;4.448;2022-12-29T02:19:03;1.34;;;1.04;;
71290;SDS011;59073;51.994;4.448;2022-12-29T02:24:41;1.59;;;1.19;;
71290;SDS011;59073;51.994;4.448;2022-12-29T02:27:34;1.33;;;0.99;;
71290;SDS011;59073;51.994;4.448;2022-12-29T02:33:10;1.45;;;1.06;;
71290;SDS011;59073;51.994;4.448;2022-12-29T02:35:54;1.76;;;1.29;;
71290;SDS011;59073;51.994;4.448;2022-12-29T02:40:58;1.68;;;1.19;;
71290;SDS011;59073;51.994;4.448;2022-12-29T02:43:54;1.84;;;1.29;;
71290;SDS011;59073;51.994;4.448;2022-12-29T02:49:42;2.10;;;1.47;;
71290;SDS011;59073;51.994;4.448;2022-12-29T02:52:27;2.51;;;1.74;;
71290;SDS011;59073;51.994;4.448;2022-12-29T02:54:59;2.71;;;1.85;;
71290;SDS011;59073;51.994;4.448;2022-12-29T02:59:57;2.50;;;1.64;;
71290;SDS011;59073;51.994;4.448;2022-12-29T03:11:17;3.01;;;1.92;;
71290;SDS011;59073;51.994;4.448;2022-12-29T03:16:56;2.48;;;1.59;;
71290;SDS011;59073;51.994;4.448;2022-12-29T03:19:34;2.51;;;1.61;;
71290;SDS011;59073;51.994;4.448;2022-12-29T03:22:09;3.46;;;2.23;;
71290;SDS011;59073;51.994;4.448;2022-12-29T03:25:08;2.69;;;1.76;;
71290;SDS011;59073;51.994;4.448;2022-12-29T03:27:47;2.21;;;1.44;;
71290;SDS011;59073;51.994;4.448;2022-12-29T03:30:17;2.31;;;1.52;;
71290;SDS011;59073;51.994;4.448;2022-12-29T03:32:45;2.10;;;1.39;;
71290;SDS011;59073;51.994;4.448;2022-12-29T03:35:16;2.32;;;1.54;;
71290;SDS011;59073;51.994;4.448;2022-12-29T03:38:06;2.09;;;1.41;;
71290;SDS011;59073;51.994;4.448;2022-12-29T03:40:48;1.98;;;1.34;;
71290;SDS011;59073;51.994;4.448;2022-12-29T03:43:17;1.85;;;1.25;;
71290;SDS011;59073;51.994;4.448;2022-12-29T03:45:44;1.80;;;1.22;;
71290;SDS011;59073;51.994;4.448;2022-12-29T03:48:09;2.04;;;1.39;;
71290;SDS011;59073;51.994;4.448;2022-12-29T03:50:34;1.68;;;1.14;;
71290;SDS011;59073;51.994;4.448;2022-12-29T03:53:00;2.01;;;1.38;;
71290;SDS011;59073;51.994;4.448;2022-12-29T03:55:25;1.97;;;1.34;;
71290;SDS011;59073;51.994;4.448;2022-12-29T03:57:51;2.01;;;1.37;;
71290;SDS011;59073;51.994;4.448;2022-12-29T04:00:16;2.47;;;1.65;;
71290;SDS011;59073;51.994;4.448;2022-12-29T04:02:42;2.30;;;1.52;;
71290;SDS011;59073;51.994;4.448;2022-12-29T04:05:07;2.65;;;1.73;;
71290;SDS011;59073;51.994;4.448;2022-12-29T04:07:33;3.50;;;2.27;;
71290;SDS011;59073;51.994;4.448;2022-12-29T04:09:58;2.73;;;1.75;;
71290;SDS011;59073;51.994;4.448;2022-12-29T04:12:24;3.80;;;2.38;;
71290;SDS011;59073;51.994;4.448;2022-12-29T04:14:49;3.48;;;2.18;;
71290;SDS011;59073;51.994;4.448;2022-12-29T04:17:14;4.11;;;2.55;;
71290;SDS011;59073;51.994;4.448;2022-12-29T04:19:40;4.27;;;2.62;;
71290;SDS011;59073;51.994;4.448;2022-12-29T04:22:05;4.15;;;2.52;;
71290;SDS011;59073;51.994;4.448;2022-12-29T04:24:31;4.41;;;2.70;;
71290;SDS011;59073;51.994;4.448;2022-12-29T04:26:56;3.47;;;2.13;;
71290;SDS011;59073;51.994;4.448;2022-12-29T04:29:22;4.51;;;2.77;;
71290;SDS011;59073;51.994;4.448;2022-12-29T04:31:47;3.56;;;2.17;;
71290;SDS011;59073;51.994;4.448;2022-12-29T04:34:12;4.05;;;2.45;;
71290;SDS011;59073;51.994;4.448;2022-12-29T04:36:38;4.15;;;2.53;;
71290;SDS011;59073;51.994;4.448;2022-12-29T04:39:05;2.86;;;1.75;;
71290;SDS011;59073;51.994;4.448;2022-12-29T04:41:31;2.99;;;1.82;;
71290;SDS011;59073;51.994;4.448;2022-12-29T04:43:57;3.12;;;1.90;;
71290;SDS011;59073;51.994;4.448;2022-12-29T04:46:22;3.52;;;2.15;;
71290;SDS011;59073;51.994;4.448;2022-12-29T04:48:48;3.29;;;2.02;;
71290;SDS011;59073;51.994;4.448;2022-12-29T04:51:13;3.77;;;2.31;;
71290;SDS011;59073;51.994;4.448;2022-12-29T04:53:39;2.89;;;1.78;;
71290;SDS011;59073;51.994;4.448;2022-12-29T04:56:04;3.42;;;2.16;;
71290;SDS011;59073;51.994;4.448;2022-12-29T04:58:30;3.36;;;2.12;;
71290;SDS011;59073;51.994;4.448;2022-12-29T05:00:55;4.45;;;2.84;;
71290;SDS011;59073;51.994;4.448;2022-12-29T05:03:21;4.02;;;2.52;;
71290;SDS011;59073;51.994;4.448;2022-12-29T05:05:47;4.17;;;2.61;;
71290;SDS011;59073;51.994;4.448;2022-12-29T05:08:12;5.54;;;3.42;;
71290;SDS011;59073;51.994;4.448;2022-12-29T05:10:38;3.60;;;2.22;;
71290;SDS011;59073;51.994;4.448;2022-12-29T05:13:03;3.74;;;2.32;;
71290;SDS011;59073;51.994;4.448;2022-12-29T05:15:29;4.50;;;2.79;;
71290;SDS011;59073;51.994;4.448;2022-12-29T05:17:54;3.78;;;2.35;;
71290;SDS011;59073;51.994;4.448;2022-12-29T05:20:20;3.74;;;2.34;;
71290;SDS011;59073;51.994;4.448;2022-12-29T05:22:45;4.07;;;2.57;;
71290;SDS011;59073;51.994;4.448;2022-12-29T05:25:11;4.05;;;2.55;;
71290;SDS011;59073;51.994;4.448;2022-12-29T05:27:36;4.61;;;2.82;;
71290;SDS011;59073;51.994;4.448;2022-12-29T05:30:02;4.09;;;2.51;;
71290;SDS011;59073;51.994;4.448;2022-12-29T05:32:28;4.70;;;2.88;;
71290;SDS011;59073;51.994;4.448;2022-12-29T05:34:53;4.74;;;2.89;;
71290;SDS011;59073;51.994;4.448;2022-12-29T05:37:19;4.41;;;2.69;;
71290;SDS011;59073;51.994;4.448;2022-12-29T05:39:45;5.46;;;3.33;;
71290;SDS011;59073;51.994;4.448;2022-12-29T05:42:10;6.27;;;3.76;;
71290;SDS011;59073;51.994;4.448;2022-12-29T05:44:36;5.69;;;3.43;;
71290;SDS011;59073;51.994;4.448;2022-12-29T05:47:02;6.35;;;3.76;;
71290;SDS011;59073;51.994;4.448;2022-12-29T05:49:27;6.90;;;4.04;;
71290;SDS011;59073;51.994;4.448;2022-12-29T05:51:53;5.72;;;3.35;;
71290;SDS011;59073;51.994;4.448;2022-12-29T05:54:18;5.71;;;3.38;;
71290;SDS011;59073;51.994;4.448;2022-12-29T05:56:44;4.17;;;2.51;;
71290;SDS011;59073;51.994;4.448;2022-12-29T05:59:09;4.77;;;2.91;;
71290;SDS011;59073;51.994;4.448;2022-12-29T06:01:35;5.06;;;3.10;;
71290;SDS011;59073;51.994;4.448;2022-12-29T06:04:00;4.51;;;2.77;;
71290;SDS011;59073;51.994;4.448;2022-12-29T06:06:25;5.32;;;3.26;;
71290;SDS011;59073;51.994;4.448;2022-12-29T06:08:51;5.17;;;3.15;;
71290;SDS011;59073;51.994;4.448;2022-12-29T06:11:17;4.91;;;3.02;;
71290;SDS011;59073;51.994;4.448;2022-12-29T06:13:42;5.62;;;3.43;;
71290;SDS011;59073;51.994;4.448;2022-12-29T06:16:10;4.59;;;2.81;;
71290;SDS011;59073;51.994;4.448;2022-12-29T06:18:39;4.98;;;3.01;;
71290;SDS011;59073;51.994;4.448;2022-12-29T06:21:04;4.11;;;2.50;;
71290;SDS011;59073;51.994;4.448;2022-12-29T06:23:31;5.27;;;3.25;;
71290;SDS011;59073;51.994;4.448;2022-12-29T06:25:57;4.96;;;3.02;;
71290;SDS011;59073;51.994;4.448;2022-12-29T06:49:09;5.73;;;3.43;;
71290;SDS011;59073;51.994;4.448;2022-12-29T07:01:56;5.26;;;3.13;;
71290;SDS011;59073;51.994;4.448;2022-12-29T07:50:11;4.74;;;3.07;;
71290;SDS011;59073;51.994;4.448;2022-12-29T08:03:15;7.23;;;4.42;;
71290;SDS011;59073;51.994;4.448;2022-12-29T09:11:05;4.37;;;2.75;;
71290;SDS011;59073;51.994;4.448;2022-12-29T09:17:15;6.13;;;3.86;;
71290;SDS011;59073;51.994;4.448;2022-12-29T09:20:50;4.66;;;2.93;;
71290;SDS011;59073;51.994;4.448;2022-12-29T09:23:31;5.45;;;3.46;;
71290;SDS011;59073;51.994;4.448;2022-12-29T10:44:31;7.93;;;4.80;;
71290;SDS011;59073;51.994;4.448;2022-12-29T11:18:34;8.05;;;4.70;;
71290;SDS011;59073;51.994;4.448;2022-12-29T13:37:34;5.57;;;3.59;;
71290;SDS011;59073;51.994;4.448;2022-12-29T13:44:16;3.66;;;2.41;;
71290;SDS011;59073;51.994;4.448;2022-12-29T15:16:25;3.55;;;2.38;;
71290;SDS011;59073;51.994;4.448;2022-12-29T15:18:58;4.22;;;2.80;;
71290;SDS011;59073;51.994;4.448;2022-12-29T15:21:31;3.70;;;2.46;;
71290;SDS011;59073;51.994;4.448;2022-12-29T15:23:59;3.43;;;2.24;;
71290;SDS011;59073;51.994;4.448;2022-12-29T15:26:42;4.53;;;2.90;;
71290;SDS011;59073;51.994;4.448;2022-12-29T16:03:26;3.50;;;2.21;;
71290;SDS011;59073;51.994;4.448;2022-12-29T16:09:59;4.03;;;2.63;;
71290;SDS011;59073;51.994;4.448;2022-12-29T16:16:07;4.49;;;2.90;;
71290;SDS011;59073;51.994;4.448;2022-12-29T16:22:34;3.40;;;2.24;;
71290;SDS011;59073;51.994;4.448;2022-12-29T16:25:24;3.70;;;2.46;;
71290;SDS011;59073;51.994;4.448;2022-12-29T16:51:35;4.83;;;2.98;;
71290;SDS011;59073;51.994;4.448;2022-12-29T16:54:45;4.73;;;2.95;;
71290;SDS011;59073;51.994;4.448;2022-12-29T16:57:33;4.80;;;3.08;;
71290;SDS011;59073;51.994;4.448;2022-12-29T17:00:24;3.78;;;2.46;;
71290;SDS011;59073;51.994;4.448;2022-12-29T17:03:22;4.19;;;2.77;;
71290;SDS011;59073;51.994;4.448;2022-12-29T17:06:17;4.49;;;2.98;;
71290;SDS011;59073;51.994;4.448;2022-12-29T17:08:44;3.82;;;2.53;;
71290;SDS011;59073;51.994;4.448;2022-12-29T17:11:26;4.47;;;2.89;;
71290;SDS011;59073;51.994;4.448;2022-12-29T17:22:02;3.94;;;2.57;;
71290;SDS011;59073;51.994;4.448;2022-12-29T17:28:41;3.41;;;2.24;;
71290;SDS011;59073;51.994;4.448;2022-12-29T17:31:08;3.95;;;2.63;;
71290;SDS011;59073;51.994;4.448;2022-12-29T17:33:38;4.25;;;2.87;;
71290;SDS011;59073;51.994;4.448;2022-12-29T17:36:06;3.86;;;2.62;;
71290;SDS011;59073;51.994;4.448;2022-12-29T17:38:35;4.49;;;3.04;;
71290;SDS011;59073;51.994;4.448;2022-12-29T17:41:01;3.46;;;2.40;;
71290;SDS011;59073;51.994;4.448;2022-12-29T17:43:27;3.76;;;2.63;;
71290;SDS011;59073;51.994;4.448;2022-12-29T17:45:54;3.73;;;2.63;;
71290;SDS011;59073;51.994;4.448;2022-12-29T17:48:21;3.06;;;2.13;;
71290;SDS011;59073;51.994;4.448;2022-12-29T17:50:48;4.50;;;3.07;;
71290;SDS011;59073;51.994;4.448;2022-12-29T17:53:24;3.53;;;2.45;;
71290;SDS011;59073;51.994;4.448;2022-12-29T17:55:52;3.45;;;2.36;;
71290;SDS011;59073;51.994;4.448;2022-12-29T18:00:43;3.49;;;2.39;;
71290;SDS011;59073;51.994;4.448;2022-12-29T18:03:15;4.45;;;3.05;;
71290;SDS011;59073;51.994;4.448;2022-12-29T18:05:42;4.13;;;2.79;;
71290;SDS011;59073;51.994;4.448;2022-12-29T18:08:08;4.64;;;3.11;;
71290;SDS011;59073;51.994;4.448;2022-12-29T18:10:36;4.01;;;2.72;;
71290;SDS011;59073;51.994;4.448;2022-12-29T18:13:02;4.02;;;2.75;;
71290;SDS011;59073;51.994;4.448;2022-12-29T18:15:29;5.34;;;3.67;;
71290;SDS011;59073;51.994;4.448;2022-12-29T18:20:34;4.64;;;3.24;;
71290;SDS011;59073;51.994;4.448;2022-12-29T18:23:00;4.07;;;2.87;;
71290;SDS011;59073;51.994;4.448;2022-12-29T18:25:26;4.65;;;3.23;;
71290;SDS011;59073;51.994;4.448;2022-12-29T18:28:05;4.69;;;3.23;;
71290;SDS011;59073;51.994;4.448;2022-12-29T18:30:30;4.89;;;3.31;;
71290;SDS011;59073;51.994;4.448;2022-12-29T18:32:56;4.45;;;3.07;;
71290;SDS011;59073;51.994;4.448;2022-12-29T18:35:23;4.89;;;3.34;;
71290;SDS011;59073;51.994;4.448;2022-12-29T18:37:52;4.22;;;2.90;;
71290;SDS011;59073;51.994;4.448;2022-12-29T18:40:17;4.59;;;3.18;;
71290;SDS011;59073;51.994;4.448;2022-12-29T18:42:44;3.88;;;2.68;;
71290;SDS011;59073;51.994;4.448;2022-12-29T18:45:20;3.76;;;2.60;;
71290;SDS011;59073;51.994;4.448;2022-12-29T18:47:47;4.70;;;3.32;;
71290;SDS011;59073;51.994;4.448;2022-12-29T19:57:35;5.59;;;3.76;;
71290;SDS011;59073;51.994;4.448;2022-12-29T20:00:44;5.11;;;3.44;;
71290;SDS011;59073;51.994;4.448;2022-12-29T20:03:10;6.55;;;4.32;;
71290;SDS011;59073;51.994;4.448;2022-12-29T20:44:17;6.30;;;4.07;;
71290;SDS011;59073;51.994;4.448;2022-12-29T20:47:01;5.89;;;3.82;;
71290;SDS011;59073;51.994;4.448;2022-12-29T20:49:42;6.65;;;4.22;;
71290;SDS011;59073;51.994;4.448;2022-12-29T20:59:57;6.71;;;4.31;;
71290;SDS011;59073;51.994;4.448;2022-12-29T21:02:48;5.81;;;3.75;;
71290;SDS011;59073;51.994;4.448;2022-12-29T21:05:22;7.15;;;4.66;;
71290;SDS011;59073;51.994;4.448;2022-12-29T21:08:32;6.63;;;4.37;;
71290;SDS011;59073;51.994;4.448;2022-12-29T21:11:19;5.18;;;3.48;;
71290;SDS011;59073;51.994;4.448;2022-12-29T21:13:47;5.40;;;3.62;;
71290;SDS011;59073;51.994;4.448;2022-12-29T21:19:34;5.95;;;3.99;;
71290;SDS011;59073;51.994;4.448;2022-12-29T21:22:58;5.28;;;3.60;;
71290;SDS011;59073;51.994;4.448;2022-12-29T21:25:41;6.18;;;4.17;;
71290;SDS011;59073;51.994;4.448;2022-12-29T21:28:16;5.61;;;3.81;;
71290;SDS011;59073;51.994;4.448;2022-12-29T21:37:06;6.37;;;4.18;;
71290;SDS011;59073;51.994;4.448;2022-12-29T21:39:48;5.66;;;3.84;;
71290;SDS011;59073;51.994;4.448;2022-12-29T21:42:22;5.08;;;3.44;;
71290;SDS011;59073;51.994;4.448;2022-12-29T21:51:32;5.86;;;3.95;;
71290;SDS011;59073;51.994;4.448;2022-12-29T21:54:25;5.07;;;3.40;;
71290;SDS011;59073;51.994;4.448;2022-12-29T21:57:17;4.85;;;3.30;;
71290;SDS011;59073;51.994;4.448;2022-12-29T22:00:04;4.15;;;2.87;;
71290;SDS011;59073;51.994;4.448;2022-12-29T22:02:49;5.32;;;3.66;;
71290;SDS011;59073;51.994;4.448;2022-12-29T22:05:34;4.92;;;3.29;;
71290;SDS011;59073;51.994;4.448;2022-12-29T22:08:18;5.11;;;3.35;;
71290;SDS011;59073;51.994;4.448;2022-12-29T22:11:07;5.38;;;3.50;;
71290;SDS011;59073;51.994;4.448;2022-12-29T22:13:52;5.33;;;3.46;;
71290;SDS011;59073;51.994;4.448;2022-12-29T22:16:30;5.97;;;3.88;;
71290;SDS011;59073;51.994;4.448;2022-12-29T22:19:01;5.47;;;3.50;;
71290;SDS011;59073;51.994;4.448;2022-12-29T22:21:49;5.37;;;3.44;;
71290;SDS011;59073;51.994;4.448;2022-12-29T22:27:50;5.44;;;3.63;;
71290;SDS011;59073;51.994;4.448;2022-12-29T22:30:41;5.14;;;3.52;;
71290;SDS011;59073;51.994;4.448;2022-12-29T22:33:13;4.79;;;3.30;;
71290;SDS011;59073;51.994;4.448;2022-12-29T22:35:42;4.30;;;2.95;;
71290;SDS011;59073;51.994;4.448;2022-12-29T22:38:16;4.49;;;3.12;;
71290;SDS011;59073;51.994;4.448;2022-12-29T22:41:01;5.17;;;3.58;;
71290;SDS011;59073;51.994;4.448;2022-12-29T22:47:20;4.90;;;3.48;;
71290;SDS011;59073;51.994;4.448;2022-12-29T22:49:51;4.50;;;3.19;;
71290;SDS011;59073;51.994;4.448;2022-12-29T22:52:25;4.92;;;3.54;;
71290;SDS011;59073;51.994;4.448;2022-12-29T22:55:32;4.19;;;2.98;;
71290;SDS011;59073;51.994;4.448;2022-12-29T22:58:19;4.56;;;3.24;;
71290;SDS011;59073;51.994;4.448;2022-12-29T23:00:44;4.61;;;3.34;;
71290;SDS011;59073;51.994;4.448;2022-12-29T23:03:10;4.54;;;3.37;;
71290;SDS011;59073;51.994;4.448;2022-12-29T23:05:36;4.25;;;3.14;;
71290;SDS011;59073;51.994;4.448;2022-12-29T23:08:07;4.59;;;3.41;;
71290;SDS011;59073;51.994;4.448;2022-12-29T23:10:42;4.35;;;3.16;;
71290;SDS011;59073;51.994;4.448;2022-12-29T23:13:32;4.53;;;3.17;;
71290;SDS011;59073;51.994;4.448;2022-12-29T23:15:59;4.05;;;2.80;;
71290;SDS011;59073;51.994;4.448;2022-12-29T23:18:24;4.33;;;2.97;;
71290;SDS011;59073;51.994;4.448;2022-12-29T23:20:53;4.15;;;2.88;;
71290;SDS011;59073;51.994;4.448;2022-12-29T23:23:28;3.67;;;2.55;;
71290;SDS011;59073;51.994;4.448;2022-12-29T23:26:12;3.92;;;2.79;;
71290;SDS011;59073;51.994;4.448;2022-12-29T23:28:38;4.51;;;3.13;;
71290;SDS011;59073;51.994;4.448;2022-12-29T23:31:03;4.91;;;3.27;;
71290;SDS011;59073;51.994;4.448;2022-12-29T23:33:29;3.75;;;2.50;;
71290;SDS011;59073;51.994;4.448;2022-12-29T23:35:55;4.32;;;2.93;;
71290;SDS011;59073;51.994;4.448;2022-12-29T23:38:28;3.70;;;2.53;;
71290;SDS011;59073;51.994;4.448;2022-12-29T23:41:04;3.66;;;2.54;;
71290;SDS011;59073;51.994;4.448;2022-12-29T23:43:30;4.63;;;3.20;;
71290;SDS011;59073;51.994;4.448;2022-12-29T23:45:55;4.51;;;3.09;;
71290;SDS011;59073;51.994;4.448;2022-12-29T23:48:31;4.84;;;3.39;;
71290;SDS011;59073;51.994;4.448;2022-12-29T23:50:56;4.49;;;3.25;;
71290;SDS011;59073;51.994;4.448;2022-12-29T23:53:21;3.82;;;2.82;;
71290;SDS011;59073;51.994;4.448;2022-12-29T23:55:51;3.50;;;2.70;;
71290;SDS011;59073;51.994;4.448;2022-12-29T23:58:19;3.03;;;2.30;;
